sensor_id;sensor_type;location;lat;lon;timestamp;pressure;altitude;pressure_sealevel;temperature;humidity
42111;BME280;27766;52.174;5.456;2023-04-23T00:01:16;100679.69;;;8.38;100.00
42111;BME280;27766;52.174;5.456;2023-04-23T00:03:45;100682.31;;;8.41;100.00
42111;BME280;27766;52.174;5.456;2023-04-23T00:06:12;100681.66;;;8.48;100.00
42111;BME280;27766;52.174;5.456;2023-04-23T00:08:41;100683.38;;;8.48;100.00
42111;BME280;27766;52.174;5.456;2023-04-23T00:11:08;100678.25;;;8.49;100.00
42111;BME280;27766;52.174;5.456;2023-04-23T00:13:36;100671.25;;;8.45;100.00
42111;BME280;27766;52.174;5.456;2023-04-23T00:16:04;100679.06;;;8.47;100.00
42111;BME280;27766;52.174;5.456;2023-04-23T00:18:31;100679.09;;;8.48;100.00
42111;BME280;27766;52.174;5.456;2023-04-23T00:20:58;100682.50;;;8.47;100.00
42111;BME280;27766;52.174;5.456;2023-04-23T00:23:26;100686.00;;;8.49;100.00
42111;BME280;27766;52.174;5.456;2023-04-23T00:25:54;100679.09;;;8.48;100.00
42111;BME280;27766;52.174;5.456;2023-04-23T00:28:21;100679.06;;;8.47;100.00
42111;BME280;27766;52.174;5.456;2023-04-23T00:30:48;100675.59;;;8.46;100.00
42111;BME280;27766;52.174;5.456;2023-04-23T00:33:16;100668.59;;;8.42;100.00
42111;BME280;27766;52.174;5.456;2023-04-23T00:35:43;100670.31;;;8.42;100.00
42111;BME280;27766;52.174;5.456;2023-04-23T00:38:10;100667.69;;;8.40;100.00
42111;BME280;27766;52.174;5.456;2023-04-23T00:40:37;100659.06;;;8.38;100.00
42111;BME280;27766;52.174;5.456;2023-04-23T00:43:05;100661.63;;;8.38;100.00
42111;BME280;27766;52.174;5.456;2023-04-23T00:45:33;100643.59;;;8.38;100.00
42111;BME280;27766;52.174;5.456;2023-04-23T00:48:01;100649.63;;;8.40;100.00
42111;BME280;27766;52.174;5.456;2023-04-23T00:50:28;100642.66;;;8.36;100.00
42111;BME280;27766;52.174;5.456;2023-04-23T00:52:55;100649.47;;;8.32;100.00
42111;BME280;27766;52.174;5.456;2023-04-23T00:55:23;100644.31;;;8.34;100.00
42111;BME280;27766;52.174;5.456;2023-04-23T00:57:50;100648.56;;;8.32;100.00
42111;BME280;27766;52.174;5.456;2023-04-23T01:00:18;100647.69;;;8.30;100.00
42111;BME280;27766;52.174;5.456;2023-04-23T01:02:47;100641.69;;;8.31;100.00
42111;BME280;27766;52.174;5.456;2023-04-23T01:05:16;100639.81;;;8.25;100.00
42111;BME280;27766;52.174;5.456;2023-04-23T01:07:44;100643.28;;;8.26;100.00
42111;BME280;27766;52.174;5.456;2023-04-23T01:10:12;100626.81;;;8.20;100.00
42111;BME280;27766;52.174;5.456;2023-04-23T01:12:40;100645.00;;;8.25;100.00
42111;BME280;27766;52.174;5.456;2023-04-23T01:15:07;100633.72;;;8.21;100.00
42111;BME280;27766;52.174;5.456;2023-04-23T01:17:35;100630.34;;;8.24;100.00
42111;BME280;27766;52.174;5.456;2023-04-23T01:20:03;100621.56;;;8.17;100.00
42111;BME280;27766;52.174;5.456;2023-04-23T01:22:35;100631.22;;;8.24;100.00
42111;BME280;27766;52.174;5.456;2023-04-23T01:25:03;100614.03;;;8.25;100.00
42111;BME280;27766;52.174;5.456;2023-04-23T01:27:31;100620.16;;;8.29;100.00
42111;BME280;27766;52.174;5.456;2023-04-23T01:30:00;100609.75;;;8.26;100.00
42111;BME280;27766;52.174;5.456;2023-04-23T01:32:27;100609.75;;;8.26;100.00
42111;BME280;27766;52.174;5.456;2023-04-23T01:34:55;100609.81;;;8.27;100.00
42111;BME280;27766;52.174;5.456;2023-04-23T01:37:23;100599.44;;;8.26;100.00
42111;BME280;27766;52.174;5.456;2023-04-23T01:39:51;100598.59;;;8.27;100.00
42111;BME280;27766;52.174;5.456;2023-04-23T01:42:18;100594.38;;;8.29;100.00
42111;BME280;27766;52.174;5.456;2023-04-23T01:44:46;100602.09;;;8.29;100.00
42111;BME280;27766;52.174;5.456;2023-04-23T01:47:13;100604.78;;;8.33;100.00
42111;BME280;27766;52.174;5.456;2023-04-23T01:49:40;100583.94;;;8.24;100.00
42111;BME280;27766;52.174;5.456;2023-04-23T01:52:07;100600.38;;;8.29;100.00
42111;BME280;27766;52.174;5.456;2023-04-23T01:54:34;100597.84;;;8.31;100.00
42111;BME280;27766;52.174;5.456;2023-04-23T01:57:01;100596.09;;;8.30;100.00
42111;BME280;27766;52.174;5.456;2023-04-23T01:59:28;100590.13;;;8.31;100.00
42111;BME280;27766;52.174;5.456;2023-04-23T02:01:55;100588.50;;;8.36;100.00
42111;BME280;27766;52.174;5.456;2023-04-23T02:04:23;100587.56;;;8.32;100.00
42111;BME280;27766;52.174;5.456;2023-04-23T02:06:50;100586.78;;;8.36;100.00
42111;BME280;27766;52.174;5.456;2023-04-23T02:09:18;100582.56;;;8.40;100.00
42111;BME280;27766;52.174;5.456;2023-04-23T02:11:45;100579.94;;;8.37;100.00
42111;BME280;27766;52.174;5.456;2023-04-23T02:14:12;100570.38;;;8.33;100.00
42111;BME280;27766;52.174;5.456;2023-04-23T02:16:39;100566.09;;;8.33;100.00
42111;BME280;27766;52.174;5.456;2023-04-23T02:19:06;100573.06;;;8.37;100.00
42111;BME280;27766;52.174;5.456;2023-04-23T02:21:33;100579.03;;;8.35;100.00
42111;BME280;27766;52.174;5.456;2023-04-23T02:24:00;100578.19;;;8.36;100.00
42111;BME280;27766;52.174;5.456;2023-04-23T02:26:28;100579.09;;;8.38;100.00
42111;BME280;27766;52.174;5.456;2023-04-23T02:28:55;100567.09;;;8.40;100.00
42111;BME280;27766;52.174;5.456;2023-04-23T02:31:22;100567.97;;;8.40;100.00
42111;BME280;27766;52.174;5.456;2023-04-23T02:33:50;100557.69;;;8.42;100.00
42111;BME280;27766;52.174;5.456;2023-04-23T02:36:18;100565.59;;;8.48;100.00
42111;BME280;27766;52.174;5.456;2023-04-23T02:38:45;100563.00;;;8.48;100.00
42111;BME280;27766;52.174;5.456;2023-04-23T02:41:14;100555.34;;;8.51;100.00
42111;BME280;27766;52.174;5.456;2023-04-23T02:43:41;100555.34;;;8.51;100.00
42111;BME280;27766;52.174;5.456;2023-04-23T02:46:08;100558.69;;;8.47;100.00
42111;BME280;27766;52.174;5.456;2023-04-23T02:48:37;100563.19;;;8.56;100.00
42111;BME280;27766;52.174;5.456;2023-04-23T02:51:06;100558.06;;;8.58;100.00
42111;BME280;27766;52.174;5.456;2023-04-23T02:53:33;100550.31;;;8.58;100.00
42111;BME280;27766;52.174;5.456;2023-04-23T02:56:00;100549.50;;;8.59;100.00
42111;BME280;27766;52.174;5.456;2023-04-23T02:58:28;100553.03;;;8.64;100.00
42111;BME280;27766;52.174;5.456;2023-04-23T03:00:56;100553.09;;;8.65;100.00
42111;BME280;27766;52.174;5.456;2023-04-23T03:03:25;100553.94;;;8.66;100.00
42111;BME280;27766;52.174;5.456;2023-04-23T03:05:53;100547.97;;;8.68;100.00
42111;BME280;27766;52.174;5.456;2023-04-23T03:08:21;100553.09;;;8.65;100.00
42111;BME280;27766;52.174;5.456;2023-04-23T03:10:48;100556.66;;;8.72;100.00
42111;BME280;27766;52.174;5.456;2023-04-23T03:13:15;100554.91;;;8.71;100.00
42111;BME280;27766;52.174;5.456;2023-04-23T03:15:42;100554.19;;;8.78;100.00
42111;BME280;27766;52.174;5.456;2023-04-23T03:18:10;100545.50;;;8.75;100.00
42111;BME280;27766;52.174;5.456;2023-04-23T03:20:37;100555.88;;;8.76;100.00
42111;BME280;27766;52.174;5.456;2023-04-23T03:23:04;100552.41;;;8.74;100.00
42111;BME280;27766;52.174;5.456;2023-04-23T03:25:32;100553.44;;;8.84;100.00
42111;BME280;27766;52.174;5.456;2023-04-23T03:28:00;100548.28;;;8.84;100.00
42111;BME280;27766;52.174;5.456;2023-04-23T03:30:28;100545.72;;;8.85;100.00
42111;BME280;27766;52.174;5.456;2023-04-23T03:32:56;100548.38;;;8.87;100.00
42111;BME280;27766;52.174;5.456;2023-04-23T03:35:24;100540.56;;;8.85;100.00
42111;BME280;27766;52.174;5.456;2023-04-23T03:37:52;100554.38;;;8.87;100.00
42111;BME280;27766;52.174;5.456;2023-04-23T03:40:20;100536.28;;;8.84;100.00
42111;BME280;27766;52.174;5.456;2023-04-23T03:42:47;100525.09;;;8.85;100.00
42111;BME280;27766;52.174;5.456;2023-04-23T03:45:14;100522.47;;;8.84;100.00
42111;BME280;27766;52.174;5.456;2023-04-23T03:47:42;100537.09;;;8.83;100.00
42111;BME280;27766;52.174;5.456;2023-04-23T03:50:10;100537.94;;;8.81;100.00
42111;BME280;27766;52.174;5.456;2023-04-23T03:52:39;100544.78;;;8.80;100.00
42111;BME280;27766;52.174;5.456;2023-04-23T03:55:07;100541.38;;;8.83;100.00
42111;BME280;27766;52.174;5.456;2023-04-23T03:57:35;100544.78;;;8.80;100.00
42111;BME280;27766;52.174;5.456;2023-04-23T04:00:03;100533.59;;;8.80;100.00
42111;BME280;27766;52.174;5.456;2023-04-23T04:02:34;100532.75;;;8.81;100.00
42111;BME280;27766;52.174;5.456;2023-04-23T04:05:01;100519.69;;;8.73;100.00
42111;BME280;27766;52.174;5.456;2023-04-23T04:07:29;100534.44;;;8.80;100.00
42111;BME280;27766;52.174;5.456;2023-04-23T04:09:56;100538.69;;;8.78;100.00
42111;BME280;27766;52.174;5.456;2023-04-23T04:12:23;100527.44;;;8.73;100.00
42111;BME280;27766;52.174;5.456;2023-04-23T04:14:50;100542.09;;;8.76;100.00
42111;BME280;27766;52.174;5.456;2023-04-23T04:17:18;100537.75;;;8.73;100.00
42111;BME280;27766;52.174;5.456;2023-04-23T04:19:45;100532.50;;;8.68;100.00
42111;BME280;27766;52.174;5.456;2023-04-23T04:22:12;100531.63;;;8.68;100.00
42111;BME280;27766;52.174;5.456;2023-04-23T04:24:39;100538.53;;;8.69;100.00
42111;BME280;27766;52.174;5.456;2023-04-23T04:27:08;100530.00;;;8.71;100.00
42111;BME280;27766;52.174;5.456;2023-04-23T04:29:35;100527.34;;;8.70;100.00
42111;BME280;27766;52.174;5.456;2023-04-23T04:32:02;100532.38;;;8.64;100.00
42111;BME280;27766;52.174;5.456;2023-04-23T04:34:31;100524.66;;;8.64;100.00
42111;BME280;27766;52.174;5.456;2023-04-23T04:36:58;100523.81;;;8.65;100.00
42111;BME280;27766;52.174;5.456;2023-04-23T04:39:26;100531.56;;;8.65;100.00
42111;BME280;27766;52.174;5.456;2023-04-23T04:41:53;100539.28;;;8.63;100.00
42111;BME280;27766;52.174;5.456;2023-04-23T04:44:25;100540.22;;;8.67;100.00
42111;BME280;27766;52.174;5.456;2023-04-23T04:46:52;100539.31;;;8.66;100.00
42111;BME280;27766;52.174;5.456;2023-04-23T04:49:19;100537.66;;;8.68;100.00
42111;BME280;27766;52.174;5.456;2023-04-23T04:51:48;100528.16;;;8.67;100.00
42111;BME280;27766;52.174;5.456;2023-04-23T04:54:15;100534.16;;;8.66;100.00
42111;BME280;27766;52.174;5.456;2023-04-23T04:56:42;100531.44;;;8.60;100.00
42111;BME280;27766;52.174;5.456;2023-04-23T04:59:09;100536.59;;;8.59;100.00
42111;BME280;27766;52.174;5.456;2023-04-23T05:01:36;100545.25;;;8.61;100.00
42111;BME280;27766;52.174;5.456;2023-04-23T05:04:04;100543.50;;;8.60;100.00
42111;BME280;27766;52.174;5.456;2023-04-23T05:06:32;100546.91;;;8.59;100.00
42111;BME280;27766;52.174;5.456;2023-04-23T05:08:59;100545.25;;;8.62;100.00
42111;BME280;27766;52.174;5.456;2023-04-23T05:11:26;100540.94;;;8.61;100.00
42111;BME280;27766;52.174;5.456;2023-04-23T05:13:53;100538.38;;;8.63;100.00
42111;BME280;27766;52.174;5.456;2023-04-23T05:16:20;100537.66;;;8.68;100.00
42111;BME280;27766;52.174;5.456;2023-04-23T05:18:48;100534.09;;;8.62;100.00
42111;BME280;27766;52.174;5.456;2023-04-23T05:21:15;100536.75;;;8.66;100.00
42111;BME280;27766;52.174;5.456;2023-04-23T05:23:42;100537.63;;;8.67;100.00
42111;BME280;27766;52.174;5.456;2023-04-23T05:26:09;100533.31;;;8.66;100.00
42111;BME280;27766;52.174;5.456;2023-04-23T05:28:37;100530.84;;;8.72;100.00
42111;BME280;27766;52.174;5.456;2023-04-23T05:31:04;100541.34;;;8.80;100.00
42111;BME280;27766;52.174;5.456;2023-04-23T05:33:31;100538.78;;;8.81;100.00
42111;BME280;27766;52.174;5.456;2023-04-23T05:36:12;100539.63;;;8.80;100.00
42111;BME280;27766;52.174;5.456;2023-04-23T05:38:39;100535.41;;;8.85;100.00
42111;BME280;27766;52.174;5.456;2023-04-23T05:41:06;100525.09;;;8.85;100.00
42111;BME280;27766;52.174;5.456;2023-04-23T05:43:33;100542.59;;;8.99;100.00
42111;BME280;27766;52.174;5.456;2023-04-23T05:46:00;100534.94;;;9.03;100.00
42111;BME280;27766;52.174;5.456;2023-04-23T05:48:30;100548.03;;;9.14;100.00
42111;BME280;27766;52.174;5.456;2023-04-23T05:50:57;100537.00;;;9.22;100.00
42111;BME280;27766;52.174;5.456;2023-04-23T05:53:26;100536.28;;;9.32;100.00
42111;BME280;27766;52.174;5.456;2023-04-23T05:55:53;100543.38;;;9.41;100.00
42111;BME280;27766;52.174;5.456;2023-04-23T05:58:20;100544.38;;;9.50;100.00
42111;BME280;27766;52.174;5.456;2023-04-23T06:00:48;100542.00;;;9.61;100.00
42111;BME280;27766;52.174;5.456;2023-04-23T06:03:16;100537.88;;;9.73;100.00
42111;BME280;27766;52.174;5.456;2023-04-23T06:05:43;100531.00;;;9.73;100.00
42111;BME280;27766;52.174;5.456;2023-04-23T06:08:11;100532.91;;;9.85;100.00
42111;BME280;27766;52.174;5.456;2023-04-23T06:10:38;100534.84;;;9.98;100.00
42111;BME280;27766;52.174;5.456;2023-04-23T06:13:05;100529.75;;;10.03;100.00
42111;BME280;27766;52.174;5.456;2023-04-23T06:15:32;100531.56;;;10.10;100.00
42111;BME280;27766;52.174;5.456;2023-04-23T06:17:59;100521.44;;;10.26;100.00
42111;BME280;27766;52.174;5.456;2023-04-23T06:20:27;100520.69;;;10.35;100.00
42111;BME280;27766;52.174;5.456;2023-04-23T06:22:54;100519.94;;;10.37;100.00
42111;BME280;27766;52.174;5.456;2023-04-23T06:25:22;100514.00;;;10.46;100.00
42111;BME280;27766;52.174;5.456;2023-04-23T06:27:49;100515.03;;;10.60;100.00
42111;BME280;27766;52.174;5.456;2023-04-23T06:30:16;100515.19;;;10.71;100.00
42111;BME280;27766;52.174;5.456;2023-04-23T06:32:43;100510.13;;;10.81;100.00
42111;BME280;27766;52.174;5.456;2023-04-23T06:35:11;100521.38;;;10.84;100.00
42111;BME280;27766;52.174;5.456;2023-04-23T06:37:38;100518.13;;;11.02;100.00
42111;BME280;27766;52.174;5.456;2023-04-23T06:40:05;100511.31;;;11.11;100.00
42111;BME280;27766;52.174;5.456;2023-04-23T06:42:32;100505.34;;;11.19;100.00
42111;BME280;27766;52.174;5.456;2023-04-23T06:44:59;100504.59;;;11.31;100.00
42111;BME280;27766;52.174;5.456;2023-04-23T06:47:32;100502.06;;;11.36;100.00
42111;BME280;27766;52.174;5.456;2023-04-23T06:49:59;100500.50;;;11.53;100.00
42111;BME280;27766;52.174;5.456;2023-04-23T06:52:26;100496.25;;;11.63;100.00
42111;BME280;27766;52.174;5.456;2023-04-23T06:54:53;100494.66;;;11.81;100.00
42111;BME280;27766;52.174;5.456;2023-04-23T06:57:20;100496.44;;;11.88;100.00
42111;BME280;27766;52.174;5.456;2023-04-23T06:59:48;100495.69;;;12.00;100.00
42111;BME280;27766;52.174;5.456;2023-04-23T07:02:15;100481.84;;;11.99;100.00
42111;BME280;27766;52.174;5.456;2023-04-23T07:04:42;100494.91;;;12.15;100.00
42111;BME280;27766;52.174;5.456;2023-04-23T07:07:10;100494.09;;;12.25;100.00
42111;BME280;27766;52.174;5.456;2023-04-23T07:09:38;100488.16;;;12.42;100.00
42111;BME280;27766;52.174;5.456;2023-04-23T07:12:05;100482.16;;;12.54;100.00
42111;BME280;27766;52.174;5.456;2023-04-23T07:14:32;100489.13;;;12.64;100.00
42111;BME280;27766;52.174;5.456;2023-04-23T07:16:59;100493.47;;;12.74;100.00
42111;BME280;27766;52.174;5.456;2023-04-23T07:19:26;100490.94;;;12.87;100.00
42111;BME280;27766;52.174;5.456;2023-04-23T07:21:53;100481.41;;;12.92;100.00
42111;BME280;27766;52.174;5.456;2023-04-23T07:24:21;100483.19;;;13.08;100.00
42111;BME280;27766;52.174;5.456;2023-04-23T07:26:48;100480.63;;;13.24;100.00
42111;BME280;27766;52.174;5.456;2023-04-23T07:29:15;100476.28;;;13.32;100.00
42111;BME280;27766;52.174;5.456;2023-04-23T07:31:42;100482.34;;;13.34;100.00
42111;BME280;27766;52.174;5.456;2023-04-23T07:34:10;100483.22;;;13.28;100.00
42111;BME280;27766;52.174;5.456;2023-04-23T07:36:37;100479.75;;;13.33;100.00
42111;BME280;27766;52.174;5.456;2023-04-23T07:39:05;100487.59;;;13.42;100.00
42111;BME280;27766;52.174;5.456;2023-04-23T07:41:32;100485.00;;;13.53;100.00
42111;BME280;27766;52.174;5.456;2023-04-23T07:43:59;100485.00;;;13.67;100.00
42111;BME280;27766;52.174;5.456;2023-04-23T07:46:27;100483.22;;;13.80;100.00
42111;BME280;27766;52.174;5.456;2023-04-23T07:48:54;100484.13;;;13.85;100.00
42111;BME280;27766;52.174;5.456;2023-04-23T07:51:22;100470.22;;;13.92;100.00
42111;BME280;27766;52.174;5.456;2023-04-23T07:53:52;100476.28;;;13.99;100.00
42111;BME280;27766;52.174;5.456;2023-04-23T07:56:23;100474.50;;;14.16;100.00
42111;BME280;27766;52.174;5.456;2023-04-23T07:58:51;100473.63;;;14.22;100.00
42111;BME280;27766;52.174;5.456;2023-04-23T08:01:20;100461.47;;;14.27;100.00
42111;BME280;27766;52.174;5.456;2023-04-23T08:03:48;100459.81;;;14.06;100.00
42111;BME280;27766;52.174;5.456;2023-04-23T08:06:15;100458.03;;;14.13;100.00
42111;BME280;27766;52.174;5.456;2023-04-23T08:08:44;100469.22;;;14.41;100.00
42111;BME280;27766;52.174;5.456;2023-04-23T08:11:11;100471.78;;;14.52;100.00
42111;BME280;27766;52.174;5.456;2023-04-23T08:13:38;100458.75;;;14.60;100.00
42111;BME280;27766;52.174;5.456;2023-04-23T08:16:05;100459.59;;;14.66;100.00
42111;BME280;27766;52.174;5.456;2023-04-23T08:18:33;100439.66;;;14.67;100.00
42111;BME280;27766;52.174;5.456;2023-04-23T08:21:01;100462.97;;;14.87;100.00
42111;BME280;27766;52.174;5.456;2023-04-23T08:23:28;100449.00;;;14.97;100.00
42111;BME280;27766;52.174;5.456;2023-04-23T08:25:55;100453.38;;;14.97;100.00
42111;BME280;27766;52.174;5.456;2023-04-23T08:28:22;100459.53;;;14.85;100.00
42111;BME280;27766;52.174;5.456;2023-04-23T08:30:49;100455.16;;;14.88;100.00
42111;BME280;27766;52.174;5.456;2023-04-23T08:33:16;100445.47;;;15.04;100.00
42111;BME280;27766;52.174;5.456;2023-04-23T08:35:43;100450.63;;;15.17;100.00
42111;BME280;27766;52.174;5.456;2023-04-23T08:38:11;100447.97;;;15.22;100.00
42111;BME280;27766;52.174;5.456;2023-04-23T08:40:41;100453.25;;;15.14;100.00
42111;BME280;27766;52.174;5.456;2023-04-23T08:43:29;100446.16;;;15.36;100.00
42111;BME280;27766;52.174;5.456;2023-04-23T08:46:01;100449.50;;;15.47;100.00
42111;BME280;27766;52.174;5.456;2023-04-23T08:48:31;100443.31;;;15.61;100.00
42111;BME280;27766;52.174;5.456;2023-04-23T08:51:01;100450.16;;;15.74;100.00
42111;BME280;27766;52.174;5.456;2023-04-23T08:53:28;100442.22;;;15.87;100.00
42111;BME280;27766;52.174;5.456;2023-04-23T08:55:58;100445.75;;;15.79;100.00
42111;BME280;27766;52.174;5.456;2023-04-23T08:58:26;100441.50;;;15.71;100.00
42111;BME280;27766;52.174;5.456;2023-04-23T09:00:54;100446.59;;;15.81;100.00
42111;BME280;27766;52.174;5.456;2023-04-23T09:03:24;100444.84;;;15.83;100.00
42111;BME280;27766;52.174;5.456;2023-04-23T09:05:52;100446.47;;;15.95;100.00
42111;BME280;27766;52.174;5.456;2023-04-23T09:08:20;100445.41;;;16.15;100.00
42111;BME280;27766;52.174;5.456;2023-04-23T09:10:50;100452.25;;;16.27;100.00
42111;BME280;27766;52.174;5.456;2023-04-23T09:13:18;100441.53;;;16.49;100.00
42111;BME280;27766;52.174;5.456;2023-04-23T09:15:45;100444.06;;;16.55;100.00
42111;BME280;27766;52.174;5.456;2023-04-23T09:18:12;100431.78;;;16.61;100.00
42111;BME280;27766;52.174;5.456;2023-04-23T09:20:39;100437.03;;;16.58;100.00
42111;BME280;27766;52.174;5.456;2023-04-23T09:23:07;100440.38;;;16.70;100.00
42111;BME280;27766;52.174;5.456;2023-04-23T09:25:34;100437.84;;;16.65;100.00
42111;BME280;27766;52.174;5.456;2023-04-23T09:28:06;100446.38;;;16.76;100.00
42111;BME280;27766;52.174;5.456;2023-04-23T09:30:43;100430.81;;;16.67;100.00
42111;BME280;27766;52.174;5.456;2023-04-23T09:33:12;100431.72;;;16.66;100.00
42111;BME280;27766;52.174;5.456;2023-04-23T09:35:39;100433.38;;;16.72;100.00
42111;BME280;27766;52.174;5.456;2023-04-23T09:38:08;100416.63;;;16.87;100.00
42111;BME280;27766;52.174;5.456;2023-04-23T09:40:36;100426.00;;;17.03;100.00
42111;BME280;27766;52.174;5.456;2023-04-23T09:43:04;100414.78;;;16.95;100.00
42111;BME280;27766;52.174;5.456;2023-04-23T09:45:33;100426.06;;;16.99;100.00
42111;BME280;27766;52.174;5.456;2023-04-23T09:48:01;100415.59;;;16.99;100.00
42111;BME280;27766;52.174;5.456;2023-04-23T09:52:59;100422.56;;;17.00;100.00
42111;BME280;27766;52.174;5.456;2023-04-23T09:55:31;100420.59;;;17.13;100.00
42111;BME280;27766;52.174;5.456;2023-04-23T09:58:03;100421.53;;;17.12;100.00
42111;BME280;27766;52.174;5.456;2023-04-23T10:00:35;100417.97;;;17.13;100.00
42111;BME280;27766;52.174;5.456;2023-04-23T10:03:03;100424.81;;;17.23;100.00
42111;BME280;27766;52.174;5.456;2023-04-23T10:05:30;100398.81;;;17.15;100.00
42111;BME280;27766;52.174;5.456;2023-04-23T10:08:18;100426.16;;;16.92;100.00
42111;BME280;27766;52.174;5.456;2023-04-23T10:10:46;100419.78;;;17.11;100.00
42111;BME280;27766;52.174;5.456;2023-04-23T10:13:29;100410.81;;;17.27;100.00
42111;BME280;27766;52.174;5.456;2023-04-23T10:15:57;100417.09;;;17.14;100.00
42111;BME280;27766;52.174;5.456;2023-04-23T10:18:45;100412.72;;;17.16;100.00
42111;BME280;27766;52.174;5.456;2023-04-23T10:21:13;100419.34;;;17.37;100.00
42111;BME280;27766;52.174;5.456;2023-04-23T10:23:43;100422.56;;;17.53;100.00
42111;BME280;27766;52.174;5.456;2023-04-23T10:26:14;100421.75;;;17.51;100.00
42111;BME280;27766;52.174;5.456;2023-04-23T10:28:46;100426.13;;;17.49;100.00
42111;BME280;27766;52.174;5.456;2023-04-23T10:31:14;100405.25;;;17.46;100.00
42111;BME280;27766;52.174;5.456;2023-04-23T10:33:42;100417.59;;;17.37;100.00
42111;BME280;27766;52.174;5.456;2023-04-23T10:36:23;100413.91;;;17.51;100.00
42111;BME280;27766;52.174;5.456;2023-04-23T10:38:52;100406.75;;;17.59;100.00
42111;BME280;27766;52.174;5.456;2023-04-23T10:41:25;100410.16;;;17.64;100.00
42111;BME280;27766;52.174;5.456;2023-04-23T10:43:56;100397.81;;;17.72;100.00
42111;BME280;27766;52.174;5.456;2023-04-23T10:46:26;100395.41;;;17.60;100.00
42111;BME280;27766;52.174;5.456;2023-04-23T10:51:35;100388.81;;;17.37;100.00
42111;BME280;27766;52.174;5.456;2023-04-23T10:54:06;100378.69;;;17.19;100.00
42111;BME280;27766;52.174;5.456;2023-04-23T10:56:34;100388.25;;;17.20;100.00
42111;BME280;27766;52.174;5.456;2023-04-23T10:59:01;100385.72;;;17.15;100.00
42111;BME280;27766;52.174;5.456;2023-04-23T11:01:31;100381.44;;;17.09;100.00
42111;BME280;27766;52.174;5.456;2023-04-23T11:03:58;100375.16;;;17.21;99.25
42111;BME280;27766;52.174;5.456;2023-04-23T11:07:06;100366.34;;;17.25;100.00
42111;BME280;27766;52.174;5.456;2023-04-23T11:12:01;100364.19;;;17.49;95.78
42111;BME280;27766;52.174;5.456;2023-04-23T11:17:10;100370.19;;;17.56;100.00
42111;BME280;27766;52.174;5.456;2023-04-23T11:19:39;100361.47;;;17.57;98.91
42111;BME280;27766;52.174;5.456;2023-04-23T11:22:13;100355.25;;;17.61;91.54
42111;BME280;27766;52.174;5.456;2023-04-23T11:24:43;100354.25;;;17.68;89.20
42111;BME280;27766;52.174;5.456;2023-04-23T11:27:12;100351.72;;;17.64;89.21
42111;BME280;27766;52.174;5.456;2023-04-23T11:29:43;100335.88;;;17.71;95.56
42111;BME280;27766;52.174;5.456;2023-04-23T11:32:12;100346.09;;;17.84;88.60
42111;BME280;27766;52.174;5.456;2023-04-23T11:34:43;100325.88;;;17.92;81.76
42111;BME280;27766;52.174;5.456;2023-04-23T11:37:12;100340.81;;;17.85;81.84
42111;BME280;27766;52.174;5.456;2023-04-23T11:39:41;100319.78;;;17.90;82.09
42111;BME280;27766;52.174;5.456;2023-04-23T11:42:11;100319.19;;;18.21;86.46
42111;BME280;27766;52.174;5.456;2023-04-23T11:44:43;100322.88;;;18.12;81.76
42111;BME280;27766;52.174;5.456;2023-04-23T11:47:15;100287.19;;;18.07;82.53
42111;BME280;27766;52.174;5.456;2023-04-23T11:49:43;100312.53;;;18.04;81.86
42111;BME280;27766;52.174;5.456;2023-04-23T11:52:11;100314.72;;;18.26;83.47
42111;BME280;27766;52.174;5.456;2023-04-23T11:54:40;100297.13;;;18.31;73.50
42111;BME280;27766;52.174;5.456;2023-04-23T11:57:08;100299.00;;;18.25;70.60
42111;BME280;27766;52.174;5.456;2023-04-23T11:59:36;100291.06;;;18.29;75.98
42111;BME280;27766;52.174;5.456;2023-04-23T12:02:03;100277.13;;;18.29;80.51
42111;BME280;27766;52.174;5.456;2023-04-23T12:04:32;100272.25;;;18.12;75.14
42111;BME280;27766;52.174;5.456;2023-04-23T12:06:59;100287.13;;;18.10;75.10
42111;BME280;27766;52.174;5.456;2023-04-23T12:09:45;100285.56;;;18.02;73.67
42111;BME280;27766;52.174;5.456;2023-04-23T12:12:12;100280.38;;;17.99;78.03
42111;BME280;27766;52.174;5.456;2023-04-23T12:14:41;100276.97;;;17.96;80.70
42111;BME280;27766;52.174;5.456;2023-04-23T12:17:09;100269.97;;;17.96;88.96
42111;BME280;27766;52.174;5.456;2023-04-23T12:19:37;100267.44;;;17.92;79.08
42111;BME280;27766;52.174;5.456;2023-04-23T12:22:06;100262.78;;;18.04;83.61
42111;BME280;27766;52.174;5.456;2023-04-23T12:24:48;100259.13;;;18.13;80.05
42111;BME280;27766;52.174;5.456;2023-04-23T12:27:18;100255.88;;;18.02;80.14
42111;BME280;27766;52.174;5.456;2023-04-23T12:29:47;100264.31;;;18.15;83.22
42111;BME280;27766;52.174;5.456;2023-04-23T12:32:15;100255.38;;;18.25;77.84
42111;BME280;27766;52.174;5.456;2023-04-23T12:34:53;100247.47;;;18.27;77.03
42111;BME280;27766;52.174;5.456;2023-04-23T12:37:24;100258.81;;;18.27;75.55
42111;BME280;27766;52.174;5.456;2023-04-23T12:39:53;100248.41;;;18.24;75.29
42111;BME280;27766;52.174;5.456;2023-04-23T12:42:23;100236.66;;;18.03;76.78
42111;BME280;27766;52.174;5.456;2023-04-23T12:44:50;100250.38;;;18.14;86.13
42111;BME280;27766;52.174;5.456;2023-04-23T12:47:18;100227.13;;;18.00;77.30
42111;BME280;27766;52.174;5.456;2023-04-23T12:49:45;100227.22;;;17.94;82.72
42111;BME280;27766;52.174;5.456;2023-04-23T12:52:15;100225.50;;;17.93;84.80
42111;BME280;27766;52.174;5.456;2023-04-23T12:54:42;100220.31;;;17.90;85.21
42111;BME280;27766;52.174;5.456;2023-04-23T12:57:11;100213.19;;;18.00;92.00
42111;BME280;27766;52.174;5.456;2023-04-23T12:59:38;100221.31;;;18.25;82.54
42111;BME280;27766;52.174;5.456;2023-04-23T13:02:06;100214.66;;;18.48;83.78